sensor_id;sensor_type;location;lat;lon;timestamp;pressure;altitude;pressure_sealevel;temperature;humidity
40838;BME280;29632;49.168;9.848;2023-05-19T00:01:46;97340.59;;;16.70;37.06
40838;BME280;29632;49.168;9.848;2023-05-19T00:04:17;97343.41;;;16.69;37.14
40838;BME280;29632;49.168;9.848;2023-05-19T00:06:43;97340.28;;;16.65;37.11
40838;BME280;29632;49.168;9.848;2023-05-19T00:09:12;97345.88;;;16.62;37.31
40838;BME280;29632;49.168;9.848;2023-05-19T00:11:38;97346.22;;;16.59;37.31
40838;BME280;29632;49.168;9.848;2023-05-19T00:14:06;97347.19;;;16.58;37.18
40838;BME280;29632;49.168;9.848;2023-05-19T00:16:32;97343.28;;;16.54;37.34
40838;BME280;29632;49.168;9.848;2023-05-19T00:18:58;97340.81;;;16.52;37.27
40838;BME280;29632;49.168;9.848;2023-05-19T00:21:25;97333.25;;;16.49;37.24
40838;BME280;29632;49.168;9.848;2023-05-19T00:23:51;97333.41;;;16.48;37.36
40838;BME280;29632;49.168;9.848;2023-05-19T00:26:16;97330.13;;;16.46;37.16
40838;BME280;29632;49.168;9.848;2023-05-19T00:28:42;97334.91;;;16.42;37.16
40838;BME280;29632;49.168;9.848;2023-05-19T00:31:08;97334.25;;;16.40;37.29
40838;BME280;29632;49.168;9.848;2023-05-19T00:33:34;97335.22;;;16.39;37.34
40838;BME280;29632;49.168;9.848;2023-05-19T00:36:02;97334.59;;;16.37;37.56
40838;BME280;29632;49.168;9.848;2023-05-19T00:38:32;97329.69;;;16.34;37.31
40838;BME280;29632;49.168;9.848;2023-05-19T00:40:59;97325.41;;;16.33;37.35
40838;BME280;29632;49.168;9.848;2023-05-19T00:43:25;97329.00;;;16.32;37.47
40838;BME280;29632;49.168;9.848;2023-05-19T00:45:51;97324.75;;;16.31;37.47
40838;BME280;29632;49.168;9.848;2023-05-19T00:48:17;97317.03;;;16.29;37.39
40838;BME280;29632;49.168;9.848;2023-05-19T00:50:43;97317.03;;;16.29;37.32
40838;BME280;29632;49.168;9.848;2023-05-19T00:53:09;97317.19;;;16.28;37.41
40838;BME280;29632;49.168;9.848;2023-05-19T00:55:36;97313.75;;;16.27;37.47
40838;BME280;29632;49.168;9.848;2023-05-19T00:58:03;97315.53;;;16.27;37.43
40838;BME280;29632;49.168;9.848;2023-05-19T01:00:30;97313.09;;;16.25;37.42
40838;BME280;29632;49.168;9.848;2023-05-19T01:02:56;97308.81;;;16.24;37.32
40838;BME280;29632;49.168;9.848;2023-05-19T01:05:21;97306.38;;;16.22;37.30
40838;BME280;29632;49.168;9.848;2023-05-19T01:07:47;97310.81;;;16.22;37.50
40838;BME280;29632;49.168;9.848;2023-05-19T01:10:21;97306.53;;;16.21;37.60
40838;BME280;29632;49.168;9.848;2023-05-19T01:12:47;97302.28;;;16.20;37.57
40838;BME280;29632;49.168;9.848;2023-05-19T01:15:13;97298.97;;;16.18;37.56
40838;BME280;29632;49.168;9.848;2023-05-19T01:17:47;97295.69;;;16.16;37.66
40838;BME280;29632;49.168;9.848;2023-05-19T01:20:21;97295.03;;;16.14;37.54
40838;BME280;29632;49.168;9.848;2023-05-19T01:31:06;97314.75;;;16.10;37.65
40838;BME280;29632;49.168;9.848;2023-05-19T01:33:34;97309.66;;;16.08;37.55
40838;BME280;29632;49.168;9.848;2023-05-19T01:36:01;97309.66;;;16.08;37.55
40838;BME280;29632;49.168;9.848;2023-05-19T01:38:27;97312.31;;;16.08;37.56
40838;BME280;29632;49.168;9.848;2023-05-19T01:40:54;97312.31;;;16.08;37.66
40838;BME280;29632;49.168;9.848;2023-05-19T01:43:21;97322.16;;;16.06;37.71
40838;BME280;29632;49.168;9.848;2023-05-19T01:45:48;97314.44;;;16.04;37.82
40838;BME280;29632;49.168;9.848;2023-05-19T01:48:14;97308.34;;;16.04;37.87
40838;BME280;29632;49.168;9.848;2023-05-19T01:50:41;97314.59;;;16.03;37.71
40838;BME280;29632;49.168;9.848;2023-05-19T01:53:07;97309.50;;;16.01;38.00
40838;BME280;29632;49.168;9.848;2023-05-19T01:55:34;97315.56;;;16.02;37.65
40838;BME280;29632;49.168;9.848;2023-05-19T02:09:06;97303.28;;;15.94;37.97
40838;BME280;29632;49.168;9.848;2023-05-19T02:11:48;97299.66;;;15.95;37.94
40838;BME280;29632;49.168;9.848;2023-05-19T02:14:29;97294.59;;;15.94;37.70
40838;BME280;29632;49.168;9.848;2023-05-19T02:16:58;97296.38;;;15.93;38.03
40838;BME280;29632;49.168;9.848;2023-05-19T02:19:26;97292.94;;;15.93;38.07
40838;BME280;29632;49.168;9.848;2023-05-19T02:21:52;97298.34;;;15.91;37.92
40838;BME280;29632;49.168;9.848;2023-05-19T02:24:18;97293.25;;;15.90;38.16
40838;BME280;29632;49.168;9.848;2023-05-19T02:26:45;97295.06;;;15.89;38.00
40838;BME280;29632;49.168;9.848;2023-05-19T02:29:10;97296.03;;;15.88;38.15
40838;BME280;29632;49.168;9.848;2023-05-19T02:31:36;97298.81;;;15.86;37.97
40838;BME280;29632;49.168;9.848;2023-05-19T02:34:02;97301.66;;;15.85;37.93
40838;BME280;29632;49.168;9.848;2023-05-19T02:36:29;97307.53;;;15.79;38.16
40838;BME280;29632;49.168;9.848;2023-05-19T02:38:55;97308.69;;;15.76;38.08
40838;BME280;29632;49.168;9.848;2023-05-19T02:41:21;97300.13;;;15.74;38.06
40838;BME280;29632;49.168;9.848;2023-05-19T02:43:46;97302.94;;;15.73;38.17
40838;BME280;29632;49.168;9.848;2023-05-19T02:46:12;97303.25;;;15.70;38.46
40838;BME280;29632;49.168;9.848;2023-05-19T02:48:38;97298.31;;;15.66;38.39
40838;BME280;29632;49.168;9.848;2023-05-19T02:51:03;97295.84;;;15.65;38.20
40838;BME280;29632;49.168;9.848;2023-05-19T02:53:30;97290.59;;;15.65;38.24
40838;BME280;29632;49.168;9.848;2023-05-19T02:55:56;97291.25;;;15.67;38.33
40838;BME280;29632;49.168;9.848;2023-05-19T02:58:22;97299.13;;;15.67;38.35
40838;BME280;29632;49.168;9.848;2023-05-19T03:00:47;97298.16;;;15.68;38.39
40838;BME280;29632;49.168;9.848;2023-05-19T03:03:13;97289.47;;;15.67;38.12
40838;BME280;29632;49.168;9.848;2023-05-19T03:05:39;97288.63;;;15.67;38.15
40838;BME280;29632;49.168;9.848;2023-05-19T03:08:05;97290.28;;;15.68;38.16
40838;BME280;29632;49.168;9.848;2023-05-19T03:10:31;97281.59;;;15.67;38.24
40838;BME280;29632;49.168;9.848;2023-05-19T03:12:56;97294.72;;;15.67;38.12
40838;BME280;29632;49.168;9.848;2023-05-19T03:15:22;97287.66;;;15.68;38.19
40838;BME280;29632;49.168;9.848;2023-05-19T03:17:48;97286.69;;;15.69;38.17
40838;BME280;29632;49.168;9.848;2023-05-19T03:20:13;97282.25;;;15.70;38.18
40838;BME280;29632;49.168;9.848;2023-05-19T03:22:42;97280.44;;;15.70;38.02
40838;BME280;29632;49.168;9.848;2023-05-19T03:25:08;97287.97;;;15.73;38.15
40838;BME280;29632;49.168;9.848;2023-05-19T03:27:34;97287.16;;;15.73;37.86
40838;BME280;29632;49.168;9.848;2023-05-19T03:29:59;97287.16;;;15.73;38.22
40838;BME280;29632;49.168;9.848;2023-05-19T03:32:25;97291.28;;;15.75;38.22
40838;BME280;29632;49.168;9.848;2023-05-19T03:34:51;97296.53;;;15.75;38.24
40838;BME280;29632;49.168;9.848;2023-05-19T03:37:17;97291.13;;;15.77;38.17
40838;BME280;29632;49.168;9.848;2023-05-19T03:39:42;97292.09;;;15.76;37.99
40838;BME280;29632;49.168;9.848;2023-05-19T03:42:08;97289.31;;;15.77;38.12
40838;BME280;29632;49.168;9.848;2023-05-19T03:44:34;97296.38;;;15.77;38.09
40838;BME280;29632;49.168;9.848;2023-05-19T03:46:59;97299.00;;;15.77;38.14
40838;BME280;29632;49.168;9.848;2023-05-19T03:49:25;97285.22;;;15.75;38.25
40838;BME280;29632;49.168;9.848;2023-05-19T03:51:50;97293.91;;;15.75;38.09
40838;BME280;29632;49.168;9.848;2023-05-19T03:54:16;97292.22;;;15.74;38.05
40838;BME280;29632;49.168;9.848;2023-05-19T03:56:42;97292.22;;;15.74;38.19
40838;BME280;29632;49.168;9.848;2023-05-19T03:59:07;97290.78;;;15.72;38.18
40838;BME280;29632;49.168;9.848;2023-05-19T04:01:35;97297.84;;;15.71;38.30
40838;BME280;29632;49.168;9.848;2023-05-19T04:04:01;97302.25;;;15.71;38.07
40838;BME280;29632;49.168;9.848;2023-05-19T04:06:27;97297.84;;;15.71;38.01
40838;BME280;29632;49.168;9.848;2023-05-19T04:08:53;97307.50;;;15.71;38.15
40838;BME280;29632;49.168;9.848;2023-05-19T04:11:18;97302.25;;;15.71;38.06
40838;BME280;29632;49.168;9.848;2023-05-19T04:13:47;97298.81;;;15.70;38.37
40838;BME280;29632;49.168;9.848;2023-05-19T04:16:12;97309.16;;;15.72;38.31
40838;BME280;29632;49.168;9.848;2023-05-19T04:18:38;97301.44;;;15.70;38.15
40838;BME280;29632;49.168;9.848;2023-05-19T04:21:04;97303.25;;;15.70;38.08
40838;BME280;29632;49.168;9.848;2023-05-19T04:23:30;97310.13;;;15.71;38.28
40838;BME280;29632;49.168;9.848;2023-05-19T04:25:56;97304.88;;;15.71;38.29
40838;BME280;29632;49.168;9.848;2023-05-19T04:28:23;97302.44;;;15.69;38.13
40838;BME280;29632;49.168;9.848;2023-05-19T04:30:48;97306.03;;;15.68;38.21
40838;BME280;29632;49.168;9.848;2023-05-19T04:33:15;97310.47;;;15.67;38.61
40838;BME280;29632;49.168;9.848;2023-05-19T04:35:40;97312.94;;;15.69;38.16
40838;BME280;29632;49.168;9.848;2023-05-19T04:38:08;97313.75;;;15.70;38.36
40838;BME280;29632;49.168;9.848;2023-05-19T04:40:34;97311.94;;;15.70;38.15
40838;BME280;29632;49.168;9.848;2023-05-19T04:43:00;97313.59;;;15.71;38.37
40838;BME280;29632;49.168;9.848;2023-05-19T04:45:26;97320.63;;;15.71;38.22
40838;BME280;29632;49.168;9.848;2023-05-19T04:47:52;97318.50;;;15.74;38.29
40838;BME280;29632;49.168;9.848;2023-05-19T04:50:22;97313.13;;;15.76;38.34
40838;BME280;29632;49.168;9.848;2023-05-19T04:52:48;97319.22;;;15.76;38.35
40838;BME280;29632;49.168;9.848;2023-05-19T04:55:13;97324.28;;;15.78;38.32
40838;BME280;29632;49.168;9.848;2023-05-19T04:57:39;97316.22;;;15.79;37.88
40838;BME280;29632;49.168;9.848;2023-05-19T05:00:05;97322.16;;;15.81;38.09
40838;BME280;29632;49.168;9.848;2023-05-19T05:02:33;97315.75;;;15.84;38.17
40838;BME280;29632;49.168;9.848;2023-05-19T05:04:59;97316.56;;;15.84;38.13
40838;BME280;29632;49.168;9.848;2023-05-19T05:07:24;97319.03;;;15.86;38.17
40838;BME280;29632;49.168;9.848;2023-05-19T05:09:50;97314.44;;;15.88;38.14
40838;BME280;29632;49.168;9.848;2023-05-19T05:12:17;97320.38;;;15.90;38.11
40838;BME280;29632;49.168;9.848;2023-05-19T05:14:43;97307.03;;;15.92;38.14
40838;BME280;29632;49.168;9.848;2023-05-19T05:17:10;97311.16;;;15.94;38.06
40838;BME280;29632;49.168;9.848;2023-05-19T05:19:37;97303.94;;;15.96;37.92
40838;BME280;29632;49.168;9.848;2023-05-19T05:22:03;97304.56;;;15.98;38.13
40838;BME280;29632;49.168;9.848;2023-05-19T05:24:29;97308.03;;;15.99;38.22
40838;BME280;29632;49.168;9.848;2023-05-19T05:26:56;97308.03;;;15.99;38.15
40838;BME280;29632;49.168;9.848;2023-05-19T05:29:23;97307.84;;;16.00;38.24
40838;BME280;29632;49.168;9.848;2023-05-19T05:31:49;97306.22;;;15.99;38.25
40838;BME280;29632;49.168;9.848;2023-05-19T05:34:15;97300.81;;;16.01;38.15
40838;BME280;29632;49.168;9.848;2023-05-19T05:36:40;97297.19;;;16.02;38.10
40838;BME280;29632;49.168;9.848;2023-05-19T05:39:06;97296.03;;;16.04;38.23
40838;BME280;29632;49.168;9.848;2023-05-19T05:41:32;97296.53;;;16.08;38.09
40838;BME280;29632;49.168;9.848;2023-05-19T05:44:00;97297.03;;;16.12;38.02
40838;BME280;29632;49.168;9.848;2023-05-19T05:46:26;97291.75;;;16.12;38.02
40838;BME280;29632;49.168;9.848;2023-05-19T05:48:52;97293.22;;;16.14;38.20
40838;BME280;29632;49.168;9.848;2023-05-19T05:51:20;97291.44;;;16.15;38.05
40838;BME280;29632;49.168;9.848;2023-05-19T05:53:49;97291.94;;;16.18;38.09
40838;BME280;29632;49.168;9.848;2023-05-19T05:56:15;97288.78;;;16.23;38.19
40838;BME280;29632;49.168;9.848;2023-05-19T05:58:41;97298.63;;;16.29;38.23
40838;BME280;29632;49.168;9.848;2023-05-19T06:01:07;97299.78;;;16.35;38.21
40838;BME280;29632;49.168;9.848;2023-05-19T06:03:42;97299.91;;;16.41;38.09
40838;BME280;29632;49.168;9.848;2023-05-19T06:06:10;97299.44;;;16.46;38.07
40838;BME280;29632;49.168;9.848;2023-05-19T06:08:36;97305.16;;;16.50;38.16
40838;BME280;29632;49.168;9.848;2023-05-19T06:11:02;97302.00;;;16.54;38.03
40838;BME280;29632;49.168;9.848;2023-05-19T06:13:34;97296.44;;;16.57;37.98
40838;BME280;29632;49.168;9.848;2023-05-19T06:16:00;97298.56;;;16.62;37.88
40838;BME280;29632;49.168;9.848;2023-05-19T06:18:26;97305.09;;;16.66;38.30
40838;BME280;29632;49.168;9.848;2023-05-19T06:20:52;97304.63;;;16.71;38.09
40838;BME280;29632;49.168;9.848;2023-05-19T06:23:18;97300.47;;;16.76;37.91
40838;BME280;29632;49.168;9.848;2023-05-19T06:25:43;97299.78;;;16.83;38.01
40838;BME280;29632;49.168;9.848;2023-05-19T06:28:09;97304.41;;;16.89;38.03
40838;BME280;29632;49.168;9.848;2023-05-19T06:30:35;97297.47;;;16.96;38.03
40838;BME280;29632;49.168;9.848;2023-05-19T06:33:01;97301.22;;;17.02;37.88
40838;BME280;29632;49.168;9.848;2023-05-19T06:35:28;97297.91;;;17.08;37.91
40838;BME280;29632;49.168;9.848;2023-05-19T06:37:54;97293.59;;;17.15;37.86
40838;BME280;29632;49.168;9.848;2023-05-19T06:40:21;97300.81;;;17.21;37.97
40838;BME280;29632;49.168;9.848;2023-05-19T06:42:46;97298.44;;;17.26;37.86
40838;BME280;29632;49.168;9.848;2023-05-19T06:45:12;97307.47;;;17.32;38.00
40838;BME280;29632;49.168;9.848;2023-05-19T06:47:38;97306.13;;;17.36;37.76
40838;BME280;29632;49.168;9.848;2023-05-19T06:50:09;97308.09;;;17.42;37.86
40838;BME280;29632;49.168;9.848;2023-05-19T06:52:36;97299.63;;;17.47;37.92
40838;BME280;29632;49.168;9.848;2023-05-19T06:55:02;97296.66;;;17.50;37.92
40838;BME280;29632;49.168;9.848;2023-05-19T06:57:28;97296.97;;;17.55;37.88
40838;BME280;29632;49.168;9.848;2023-05-19T06:59:53;97297.44;;;17.59;37.94
40838;BME280;29632;49.168;9.848;2023-05-19T07:02:19;97300.34;;;17.64;38.17
40838;BME280;29632;49.168;9.848;2023-05-19T07:04:44;97301.00;;;17.66;37.87
40838;BME280;29632;49.168;9.848;2023-05-19T07:07:12;97295.38;;;17.69;38.06
40838;BME280;29632;49.168;9.848;2023-05-19T07:09:37;97298.66;;;17.71;37.94
40838;BME280;29632;49.168;9.848;2023-05-19T07:12:03;97288.75;;;17.73;38.20
40838;BME280;29632;49.168;9.848;2023-05-19T07:14:29;97296.13;;;17.78;38.00
40838;BME280;29632;49.168;9.848;2023-05-19T07:16:54;97289.50;;;17.82;38.19
40838;BME280;29632;49.168;9.848;2023-05-19T07:19:20;97289.00;;;17.86;38.11
40838;BME280;29632;49.168;9.848;2023-05-19T07:21:46;97287.81;;;17.89;37.90
40838;BME280;29632;49.168;9.848;2023-05-19T07:24:11;97280.38;;;17.92;37.99
40838;BME280;29632;49.168;9.848;2023-05-19T07:26:38;97287.75;;;17.97;38.07
40838;BME280;29632;49.168;9.848;2023-05-19T07:29:03;97283.59;;;18.03;38.08
40838;BME280;29632;49.168;9.848;2023-05-19T07:31:29;97282.91;;;18.09;37.86
40838;BME280;29632;49.168;9.848;2023-05-19T07:33:55;97283.34;;;18.13;37.98
40838;BME280;29632;49.168;9.848;2023-05-19T07:36:21;97277.53;;;18.17;38.09
40838;BME280;29632;49.168;9.848;2023-05-19T07:38:47;97277.81;;;18.22;38.08
40838;BME280;29632;49.168;9.848;2023-05-19T07:41:12;97286.00;;;18.27;37.99
40838;BME280;29632;49.168;9.848;2023-05-19T07:43:38;97285.63;;;18.30;38.07
40838;BME280;29632;49.168;9.848;2023-05-19T07:46:04;97282.47;;;18.35;38.01
40838;BME280;29632;49.168;9.848;2023-05-19T07:48:30;97291.47;;;18.41;38.05
40838;BME280;29632;49.168;9.848;2023-05-19T07:50:56;97286.66;;;18.44;37.97
40838;BME280;29632;49.168;9.848;2023-05-19T07:53:21;97290.56;;;18.48;37.80
40838;BME280;29632;49.168;9.848;2023-05-19T07:55:47;97286.38;;;18.54;37.97
40838;BME280;29632;49.168;9.848;2023-05-19T07:58:13;97285.81;;;18.59;37.97
40838;BME280;29632;49.168;9.848;2023-05-19T08:00:39;97287.13;;;18.63;37.90
40838;BME280;29632;49.168;9.848;2023-05-19T08:03:10;97279.47;;;18.68;37.82
40838;BME280;29632;49.168;9.848;2023-05-19T08:05:37;97280.72;;;18.72;38.02
40838;BME280;29632;49.168;9.848;2023-05-19T08:08:03;97268.81;;;18.76;37.84
40838;BME280;29632;49.168;9.848;2023-05-19T08:10:28;97268.91;;;18.83;37.97
40838;BME280;29632;49.168;9.848;2023-05-19T08:12:54;97272.81;;;18.87;37.91
40838;BME280;29632;49.168;9.848;2023-05-19T08:15:20;97275.72;;;18.92;38.02
40838;BME280;29632;49.168;9.848;2023-05-19T08:17:46;97273.53;;;18.96;37.88
40838;BME280;29632;49.168;9.848;2023-05-19T08:20:11;97261.81;;;18.98;38.06
40838;BME280;29632;49.168;9.848;2023-05-19T08:22:37;97263.91;;;19.03;38.00
40838;BME280;29632;49.168;9.848;2023-05-19T08:25:03;97271.25;;;19.08;38.04
40838;BME280;29632;49.168;9.848;2023-05-19T08:27:31;97262.16;;;19.10;38.08
40838;BME280;29632;49.168;9.848;2023-05-19T08:29:56;97270.50;;;19.14;38.03
40838;BME280;29632;49.168;9.848;2023-05-19T08:32:22;97252.47;;;19.17;38.25
40838;BME280;29632;49.168;9.848;2023-05-19T08:34:48;97252.72;;;19.22;38.20
40838;BME280;29632;49.168;9.848;2023-05-19T08:37:14;97253.34;;;19.24;38.38
40838;BME280;29632;49.168;9.848;2023-05-19T08:39:39;97245.63;;;19.23;38.29
40838;BME280;29632;49.168;9.848;2023-05-19T08:42:05;97244.44;;;19.26;38.38
40838;BME280;29632;49.168;9.848;2023-05-19T08:44:32;97254.59;;;19.29;38.27
40838;BME280;29632;49.168;9.848;2023-05-19T08:47:02;97246.13;;;19.33;38.35
40838;BME280;29632;49.168;9.848;2023-05-19T08:49:32;97239.47;;;19.37;38.04
40838;BME280;29632;49.168;9.848;2023-05-19T08:52:24;97247.81;;;19.41;38.10
40838;BME280;29632;49.168;9.848;2023-05-19T08:54:54;97240.75;;;19.41;38.31
40838;BME280;29632;49.168;9.848;2023-05-19T08:57:25;97253.28;;;19.39;38.43
40838;BME280;29632;49.168;9.848;2023-05-19T08:59:53;97240.75;;;19.41;38.21
40838;BME280;29632;49.168;9.848;2023-05-19T09:02:19;97239.53;;;19.44;38.28
40838;BME280;29632;49.168;9.848;2023-05-19T09:04:46;97241.97;;;19.46;38.45
40838;BME280;29632;49.168;9.848;2023-05-19T09:07:13;97241.63;;;19.49;38.42
40838;BME280;29632;49.168;9.848;2023-05-19T09:09:40;97241.44;;;19.50;38.19
40838;BME280;29632;49.168;9.848;2023-05-19T09:12:09;97244.50;;;19.54;38.41
40838;BME280;29632;49.168;9.848;2023-05-19T09:14:36;97238.19;;;19.55;38.03
40838;BME280;29632;49.168;9.848;2023-05-19T09:17:03;97239.47;;;19.59;38.14
40838;BME280;29632;49.168;9.848;2023-05-19T09:19:28;97237.88;;;19.65;38.23
40838;BME280;29632;49.168;9.848;2023-05-19T09:22:01;97238.94;;;19.70;38.28
40838;BME280;29632;49.168;9.848;2023-05-19T09:24:29;97241.88;;;19.75;38.29
40838;BME280;29632;49.168;9.848;2023-05-19T09:26:56;97236.00;;;19.80;38.12
40838;BME280;29632;49.168;9.848;2023-05-19T09:29:21;97236.38;;;19.77;37.98
40838;BME280;29632;49.168;9.848;2023-05-19T09:31:52;97240.88;;;19.76;37.95
40838;BME280;29632;49.168;9.848;2023-05-19T09:34:19;97235.19;;;19.79;38.19
40838;BME280;29632;49.168;9.848;2023-05-19T09:36:46;97234.63;;;19.84;37.90
40838;BME280;29632;49.168;9.848;2023-05-19T09:39:21;97234.06;;;19.89;38.16
40838;BME280;29632;49.168;9.848;2023-05-19T09:41:50;97235.09;;;19.94;38.07
40838;BME280;29632;49.168;9.848;2023-05-19T09:44:25;97230.88;;;20.00;37.98
40838;BME280;29632;49.168;9.848;2023-05-19T09:46:55;97232.94;;;20.05;37.94
40838;BME280;29632;49.168;9.848;2023-05-19T09:49:30;97236.22;;;20.07;37.97
40838;BME280;29632;49.168;9.848;2023-05-19T09:51:58;97237.44;;;20.11;37.85
40838;BME280;29632;49.168;9.848;2023-05-19T09:54:24;97228.94;;;20.15;37.85
40838;BME280;29632;49.168;9.848;2023-05-19T09:57:01;97233.84;;;20.18;37.81
40838;BME280;29632;49.168;9.848;2023-05-19T09:59:28;97230.78;;;20.22;37.87
40838;BME280;29632;49.168;9.848;2023-05-19T10:01:55;97221.28;;;20.27;37.75
40838;BME280;29632;49.168;9.848;2023-05-19T10:04:25;97225.16;;;20.31;37.62
40838;BME280;29632;49.168;9.848;2023-05-19T10:06:52;97223.97;;;20.34;37.82
40838;BME280;29632;49.168;9.848;2023-05-19T10:09:23;97226.41;;;20.35;37.88
40838;BME280;29632;49.168;9.848;2023-05-19T10:11:52;97231.50;;;20.37;37.93
40838;BME280;29632;49.168;9.848;2023-05-19T10:14:22;97229.47;;;20.39;37.86
40838;BME280;29632;49.168;9.848;2023-05-19T10:16:51;97219.53;;;20.41;37.76
40838;BME280;29632;49.168;9.848;2023-05-19T10:19:21;97228.09;;;20.43;37.75
40838;BME280;29632;49.168;9.848;2023-05-19T10:21:47;97224.22;;;20.46;37.83
40838;BME280;29632;49.168;9.848;2023-05-19T10:24:14;97221.19;;;20.49;37.62
40838;BME280;29632;49.168;9.848;2023-05-19T10:26:42;97221.63;;;20.52;37.66
40838;BME280;29632;49.168;9.848;2023-05-19T10:29:08;97216.13;;;20.54;37.72
40838;BME280;29632;49.168;9.848;2023-05-19T10:31:34;97216.75;;;20.56;37.64
40838;BME280;29632;49.168;9.848;2023-05-19T10:37:11;97208.88;;;20.63;37.65
40838;BME280;29632;49.168;9.848;2023-05-19T10:39:41;97211.31;;;20.64;37.71
40838;BME280;29632;49.168;9.848;2023-05-19T10:45:33;97204.41;;;20.70;37.66
40838;BME280;29632;49.168;9.848;2023-05-19T10:48:00;97209.13;;;20.74;37.71
40838;BME280;29632;49.168;9.848;2023-05-19T10:50:26;97209.75;;;20.77;37.60
40838;BME280;29632;49.168;9.848;2023-05-19T10:52:59;97199.78;;;20.79;37.47
40838;BME280;29632;49.168;9.848;2023-05-19T10:55:54;97201.00;;;20.83;37.53
40838;BME280;29632;49.168;9.848;2023-05-19T10:58:37;97205.09;;;20.85;37.46
40838;BME280;29632;49.168;9.848;2023-05-19T11:01:17;97201.44;;;20.86;37.60
40838;BME280;29632;49.168;9.848;2023-05-19T11:03:48;97205.31;;;20.90;37.79
40838;BME280;29632;49.168;9.848;2023-05-19T11:06:27;97211.22;;;20.92;37.28
40838;BME280;29632;49.168;9.848;2023-05-19T11:08:58;97209.19;;;20.94;37.44
40838;BME280;29632;49.168;9.848;2023-05-19T11:11:48;97202.69;;;20.97;37.58
40838;BME280;29632;49.168;9.848;2023-05-19T11:14:18;97202.50;;;20.99;37.45
40838;BME280;29632;49.168;9.848;2023-05-19T11:16:49;97200.66;;;20.99;37.48
40838;BME280;29632;49.168;9.848;2023-05-19T11:19:32;97202.50;;;20.99;37.69
40838;BME280;29632;49.168;9.848;2023-05-19T11:22:09;97205.34;;;20.97;37.61
40838;BME280;29632;49.168;9.848;2023-05-19T11:29:47;97202.88;;;20.96;37.57
40838;BME280;29632;49.168;9.848;2023-05-19T11:32:13;97202.88;;;20.96;37.57
40838;BME280;29632;49.168;9.848;2023-05-19T11:34:39;97201.03;;;20.96;37.50
40838;BME280;29632;49.168;9.848;2023-05-19T11:37:06;97197.59;;;20.96;37.59
40838;BME280;29632;49.168;9.848;2023-05-19T11:39:32;97192.28;;;20.96;37.64
40838;BME280;29632;49.168;9.848;2023-05-19T11:41:57;97192.09;;;20.97;37.54
40838;BME280;29632;49.168;9.848;2023-05-19T11:44:23;97195.56;;;20.98;37.52
40838;BME280;29632;49.168;9.848;2023-05-19T11:46:49;97190.06;;;20.99;37.52
40838;BME280;29632;49.168;9.848;2023-05-19T11:49:15;97192.50;;;21.01;37.47
40838;BME280;29632;49.168;9.848;2023-05-19T11:51:44;97194.53;;;21.05;37.48
40838;BME280;29632;49.168;9.848;2023-05-19T11:54:11;97198.03;;;21.06;37.45
40838;BME280;29632;49.168;9.848;2023-05-19T11:56:42;97194.53;;;21.05;37.55
40838;BME280;29632;49.168;9.848;2023-05-19T11:59:08;97192.72;;;21.06;37.43
40838;BME280;29632;49.168;9.848;2023-05-19T12:01:34;97200.47;;;21.07;37.59
40838;BME280;29632;49.168;9.848;2023-05-19T12:04:00;97195.78;;;21.09;37.38
40838;BME280;29632;49.168;9.848;2023-05-19T12:06:27;97200.25;;;21.09;37.62
40838;BME280;29632;49.168;9.848;2023-05-19T12:08:53;97196.59;;;21.10;37.49
40838;BME280;29632;49.168;9.848;2023-05-19T12:11:19;97204.13;;;21.06;37.66
40838;BME280;29632;49.168;9.848;2023-05-19T12:13:46;97203.31;;;21.06;37.58
40838;BME280;29632;49.168;9.848;2023-05-19T12:16:11;97196.19;;;21.06;37.43
40838;BME280;29632;49.168;9.848;2023-05-19T12:18:37;97194.34;;;21.07;37.47
40838;BME280;29632;49.168;9.848;2023-05-19T12:21:03;97198.63;;;21.08;37.51
40838;BME280;29632;49.168;9.848;2023-05-19T12:23:29;97196.19;;;21.06;37.55
40838;BME280;29632;49.168;9.848;2023-05-19T12:25:57;97191.69;;;21.07;37.49
40838;BME280;29632;49.168;9.848;2023-05-19T12:28:23;97194.34;;;21.07;37.68
40838;BME280;29632;49.168;9.848;2023-05-19T12:30:51;97192.53;;;21.07;37.58
40838;BME280;29632;49.168;9.848;2023-05-19T12:33:17;97191.50;;;21.08;37.48
40838;BME280;29632;49.168;9.848;2023-05-19T12:35:44;97189.47;;;21.10;37.56
40838;BME280;29632;49.168;9.848;2023-05-19T12:38:10;97190.28;;;21.11;37.69
40838;BME280;29632;49.168;9.848;2023-05-19T12:40:36;97191.72;;;21.13;37.51
40838;BME280;29632;49.168;9.848;2023-05-19T12:43:04;97180.91;;;21.15;37.47
40838;BME280;29632;49.168;9.848;2023-05-19T12:45:36;97182.56;;;21.16;37.58
40838;BME280;29632;49.168;9.848;2023-05-19T12:48:10;97176.22;;;21.17;37.58
40838;BME280;29632;49.168;9.848;2023-05-19T12:50:36;97171.75;;;21.18;37.47
40838;BME280;29632;49.168;9.848;2023-05-19T12:53:02;97171.53;;;21.19;37.48
40838;BME280;29632;49.168;9.848;2023-05-19T12:55:28;97176.03;;;21.19;37.45
40838;BME280;29632;49.168;9.848;2023-05-19T12:57:54;97171.53;;;21.19;37.38
40838;BME280;29632;49.168;9.848;2023-05-19T13:00:22;97169.75;;;21.20;37.40
40838;BME280;29632;49.168;9.848;2023-05-19T13:03:01;97178.47;;;21.20;37.53
40838;BME280;29632;49.168;9.848;2023-05-19T13:05:33;97170.53;;;21.20;37.48
40838;BME280;29632;49.168;9.848;2023-05-19T13:08:01;97169.75;;;21.20;37.50
40838;BME280;29632;49.168;9.848;2023-05-19T13:10:29;97169.31;;;21.23;37.47
40838;BME280;29632;49.168;9.848;2023-05-19T13:12:56;97169.94;;;21.25;37.42
40838;BME280;29632;49.168;9.848;2023-05-19T13:15:23;97170.34;;;21.28;37.27
40838;BME280;29632;49.168;9.848;2023-05-19T13:17:51;97159.53;;;21.30;37.61
40838;BME280;29632;49.168;9.848;2023-05-19T13:20:17;97166.47;;;21.31;37.36
40838;BME280;29632;49.168;9.848;2023-05-19T13:22:43;97162.81;;;21.32;37.43
40838;BME280;29632;49.168;9.848;2023-05-19T13:25:08;97159.75;;;21.35;37.41
40838;BME280;29632;49.168;9.848;2023-05-19T13:27:34;97151.41;;;21.38;37.32
40838;BME280;29632;49.168;9.848;2023-05-19T13:30:00;97161.78;;;21.40;37.42
40838;BME280;29632;49.168;9.848;2023-05-19T13:32:26;97156.09;;;21.43;37.47